Time;durP1;ratioP1;P1;durP2;ratioP2;P2;SDS_P1;SDS_P2;PMS_P1;PMS_P2;Temp;Humidity;BMP_temperature;BMP_pressure;BME280_temperature;BME280_humidity;BME280_pressure;Samples;Min_cycle;Max_cycle;Signal;HPM_P1;HPM_P2
2022/06/19 00:00:51;;;;;;;;;;;;;;;22.89;43.52;100742.37;5342781;32;35474;-77
2022/06/19 00:03:54;;;;;;;;;;;;;;;22.95;43.47;100749.91;5342997;32;34332;-71
2022/06/19 00:06:56;;;;;;;;;;;;;;;22.33;44.95;100753.28;5358904;32;35157;-76
2022/06/19 00:09:58;;;;;;;;;;;;;;;22.21;44.74;100755.16;5328770;32;46691;-70
2022/06/19 00:13:00;;;;;;;;;;;;;;;22.86;42.92;100753.31;5354810;32;35052;-70
2022/06/19 00:16:02;;;;;;;;;;;;;;;22.06;44.96;100751.03;5341482;32;35628;-76
2022/06/19 00:19:05;;;;;;;;;;;;;;;21.80;45.71;100745.97;5341656;32;35061;-76
2022/06/19 00:22:07;;;;;;;;;;;;;;;22.64;43.63;100744.41;5357532;32;34795;-76
2022/06/19 00:25:09;;;;;;;;;;;;;;;22.89;42.80;100734.34;5343056;32;35004;-76
2022/06/19 00:28:11;;;;;;;;;;;;;;;22.94;42.92;100748.19;5358748;32;35728;-77
2022/06/19 00:31:14;;;;;;;;;;;;;;;23.11;42.33;100727.97;5341648;32;37062;-78
2022/06/19 00:34:16;;;;;;;;;;;;;;;22.91;42.95;100735.91;5355429;32;34793;-70
2022/06/19 00:37:18;;;;;;;;;;;;;;;21.88;45.55;100734.63;5342171;32;35852;-76
2022/06/19 00:40:21;;;;;;;;;;;;;;;22.77;43.96;100735.34;5320003;32;34768;-72
2022/06/19 00:43:23;;;;;;;;;;;;;;;23.41;42.24;100735.19;5357791;32;34317;-71
2022/06/19 00:46:54;;;;;;;;;;;;;;;23.35;42.55;100730.38;5342940;32;35019;-72
2022/06/19 00:49:57;;;;;;;;;;;;;;;23.47;42.43;100726.62;5355203;32;35023;-71
2022/06/19 00:53:00;;;;;;;;;;;;;;;23.25;42.63;100722.28;5341389;32;44311;-70
2022/06/19 00:56:02;;;;;;;;;;;;;;;22.75;44.33;100715.88;5345905;32;34493;-76
2022/06/19 00:59:04;;;;;;;;;;;;;;;22.46;45.29;100713.81;5352625;32;35293;-71
2022/06/19 01:02:06;;;;;;;;;;;;;;;22.47;45.46;100717.34;5340552;32;35121;-77
2022/06/19 01:05:11;;;;;;;;;;;;;;;22.49;45.60;100721.59;5354654;32;34892;-74
2022/06/19 01:08:14;;;;;;;;;;;;;;;22.32;46.03;100716.78;5337059;32;36277;-70
2022/06/19 01:11:16;;;;;;;;;;;;;;;22.49;45.78;100720.75;5354531;32;35353;-80
2022/06/19 01:14:19;;;;;;;;;;;;;;;22.35;46.31;100714.72;5340866;32;35433;-70
2022/06/19 01:17:21;;;;;;;;;;;;;;;21.92;47.91;100717.38;5340031;32;33972;-70
2022/06/19 01:20:24;;;;;;;;;;;;;;;22.09;47.73;100718.69;5344281;32;34408;-70
2022/06/19 01:23:36;;;;;;;;;;;;;;;21.93;48.05;100716.38;5342954;32;34638;-71
2022/06/19 01:26:43;;;;;;;;;;;;;;;21.76;49.09;100712.38;5360324;32;34792;-70
2022/06/19 01:29:45;;;;;;;;;;;;;;;21.32;50.23;100714.13;5344701;32;34760;-76
2022/06/19 01:32:48;;;;;;;;;;;;;;;21.60;49.43;100710.09;5357367;32;35544;-72
2022/06/19 01:35:50;;;;;;;;;;;;;;;21.82;48.21;100700.34;5348432;32;35141;-78
2022/06/19 01:38:52;;;;;;;;;;;;;;;20.95;50.31;100713.44;5320499;32;35225;-71
2022/06/19 01:41:54;;;;;;;;;;;;;;;21.24;50.11;100694.28;5347439;32;34907;-71
2022/06/19 01:44:58;;;;;;;;;;;;;;;21.23;49.69;100708.63;5343869;32;45251;-76
2022/06/19 01:48:00;;;;;;;;;;;;;;;21.24;49.90;100715.66;5357951;32;34940;-77
2022/06/19 01:51:03;;;;;;;;;;;;;;;21.66;48.80;100710.59;5344537;32;34767;-70
2022/06/19 01:54:06;;;;;;;;;;;;;;;21.65;48.39;100708.91;5353309;32;34289;-76
2022/06/19 01:57:09;;;;;;;;;;;;;;;21.28;49.41;100710.00;5350517;32;35081;-76
2022/06/19 02:00:13;;;;;;;;;;;;;;;21.62;48.82;100715.31;5341028;32;34360;-70
2022/06/19 02:03:34;;;;;;;;;;;;;;;21.53;48.86;100710.72;5359190;32;34844;-70
2022/06/19 02:06:46;;;;;;;;;;;;;;;21.86;48.09;100707.16;5344377;32;43127;-74
2022/06/19 02:09:48;;;;;;;;;;;;;;;20.76;51.17;100699.81;5356533;32;34846;-79
2022/06/19 02:12:50;;;;;;;;;;;;;;;21.23;49.91;100677.37;5344417;32;34941;-76
2022/06/19 02:15:52;;;;;;;;;;;;;;;21.57;49.29;100693.44;5339493;32;35514;-78
2022/06/19 02:18:54;;;;;;;;;;;;;;;21.72;48.94;100697.59;5357497;32;34771;-78
2022/06/19 02:21:56;;;;;;;;;;;;;;;21.22;50.23;100690.87;5342645;32;34742;-77
2022/06/19 02:24:58;;;;;;;;;;;;;;;21.27;50.01;100688.69;5359286;32;44456;-77
2022/06/19 02:28:01;;;;;;;;;;;;;;;21.28;50.41;100687.72;5343004;32;35211;-70
2022/06/19 02:31:03;;;;;;;;;;;;;;;21.10;50.73;100690.87;5355321;32;35580;-77
2022/06/19 02:34:15;;;;;;;;;;;;;;;20.89;51.84;100697.87;5346386;32;34940;-78
2022/06/19 02:37:22;;;;;;;;;;;;;;;21.68;49.10;100703.28;5341929;32;35748;-78
2022/06/19 02:40:43;;;;;;;;;;;;;;;22.04;47.32;100694.97;5334157;32;34351;-76
2022/06/19 02:43:45;;;;;;;;;;;;;;;22.32;46.68;100695.38;5343783;32;34917;-69
2022/06/19 02:46:47;;;;;;;;;;;;;;;22.37;46.08;100690.50;5358927;32;34271;-70
2022/06/19 02:49:49;;;;;;;;;;;;;;;21.77;46.84;100691.88;5342698;32;35075;-72
2022/06/19 02:52:51;;;;;;;;;;;;;;;22.00;46.75;100671.25;5342970;32;34592;-71
2022/06/19 02:55:53;;;;;;;;;;;;;;;22.02;46.26;100682.66;5360129;32;35094;-79
2022/06/19 02:58:55;;;;;;;;;;;;;;;21.70;46.95;100686.12;5344374;32;35120;-76
2022/06/19 03:01:57;;;;;;;;;;;;;;;22.09;45.28;100681.19;5359480;32;35187;-70
2022/06/19 03:05:00;;;;;;;;;;;;;;;21.60;46.57;100679.84;5339925;32;44268;-76
2022/06/19 03:08:02;;;;;;;;;;;;;;;21.51;47.53;100676.09;5356077;32;35431;-72
2022/06/19 03:11:04;;;;;;;;;;;;;;;21.53;48.21;100679.50;5344604;32;35061;-77
2022/06/19 03:14:07;;;;;;;;;;;;;;;21.50;47.81;100673.53;5337932;32;34236;-72
2022/06/19 03:17:13;;;;;;;;;;;;;;;21.76;47.85;100671.41;5357470;32;34759;-77
2022/06/19 03:20:16;;;;;;;;;;;;;;;22.16;47.02;100675.25;5342869;32;35435;-76
2022/06/19 03:23:18;;;;;;;;;;;;;;;22.23;47.03;100674.72;5356042;32;35185;-78
2022/06/19 03:26:20;;;;;;;;;;;;;;;22.18;47.03;100677.78;5342231;32;34957;-70
2022/06/19 03:29:22;;;;;;;;;;;;;;;21.05;50.55;100671.66;5355944;32;34842;-70
2022/06/19 03:32:24;;;;;;;;;;;;;;;21.49;49.54;100667.31;5346003;32;34841;-78
2022/06/19 03:35:25;;;;;;;;;;;;;;;20.77;52.34;100664.09;5342235;32;35245;-70
2022/06/19 03:38:27;;;;;;;;;;;;;;;21.22;51.37;100669.50;5350243;32;42960;-70
2022/06/19 03:41:29;;;;;;;;;;;;;;;20.47;53.55;100654.78;5327834;32;34250;-76
2022/06/19 03:44:31;;;;;;;;;;;;;;;21.09;52.04;100675.81;5358012;32;35246;-70
2022/06/19 03:47:33;;;;;;;;;;;;;;;20.49;52.93;100674.25;5343799;32;35092;-78
2022/06/19 03:50:35;;;;;;;;;;;;;;;21.05;50.81;100673.47;5355837;32;34924;-78
2022/06/19 03:53:37;;;;;;;;;;;;;;;20.88;51.24;100660.63;5345830;32;34860;-70
2022/06/19 03:56:39;;;;;;;;;;;;;;;21.32;50.83;100679.38;5343843;32;34780;-73
2022/06/19 03:59:45;;;;;;;;;;;;;;;21.59;50.03;100668.28;5358689;32;35755;-68
2022/06/19 04:02:47;;;;;;;;;;;;;;;22.02;48.74;100674.63;5341810;32;35366;-70
2022/06/19 04:05:49;;;;;;;;;;;;;;;21.24;50.99;100679.09;5355435;32;35297;-76
2022/06/19 04:08:51;;;;;;;;;;;;;;;20.89;52.61;100678.34;5343157;32;35413;-78
2022/06/19 04:11:53;;;;;;;;;;;;;;;21.84;49.85;100668.97;5350762;32;35160;-78
2022/06/19 04:14:55;;;;;;;;;;;;;;;21.89;49.81;100672.97;5345285;32;34627;-72
2022/06/19 04:17:57;;;;;;;;;;;;;;;21.42;50.97;100671.47;5343198;32;46329;-71
2022/06/19 04:20:59;;;;;;;;;;;;;;;21.34;51.47;100664.06;5356214;32;36785;-75
2022/06/19 04:24:04;;;;;;;;;;;;;;;21.25;51.44;100662.09;5341538;32;34646;-71
2022/06/19 04:27:06;;;;;;;;;;;;;;;21.48;51.15;100657.59;5344322;32;34429;-71
2022/06/19 04:30:08;;;;;;;;;;;;;;;22.39;49.15;100656.38;5342332;32;35309;-70
2022/06/19 04:33:10;;;;;;;;;;;;;;;23.83;45.33;100659.94;5346747;32;37189;-75
2022/06/19 04:36:13;;;;;;;;;;;;;;;23.92;44.53;100656.44;5348753;32;35048;-71
2022/06/19 04:39:15;;;;;;;;;;;;;;;23.90;44.20;100653.06;5329051;32;34848;-78
2022/06/19 04:42:17;;;;;;;;;;;;;;;24.34;43.40;100650.81;5349870;32;34986;-78
2022/06/19 04:45:19;;;;;;;;;;;;;;;24.87;41.64;100653.87;5343242;32;34293;-72
2022/06/19 04:48:22;;;;;;;;;;;;;;;25.27;41.13;100656.28;5358677;32;35859;-72
2022/06/19 04:51:25;;;;;;;;;;;;;;;26.74;37.63;100660.53;5345486;32;34643;-71
2022/06/19 04:54:27;;;;;;;;;;;;;;;26.75;37.21;100655.97;5348169;32;34410;-71
2022/06/19 04:57:29;;;;;;;;;;;;;;;25.22;40.54;100663.13;5353450;32;44217;-71
2022/06/19 05:00:35;;;;;;;;;;;;;;;24.25;42.65;100652.50;5344517;32;35505;-76
2022/06/19 05:03:37;;;;;;;;;;;;;;;25.42;40.68;100672.78;5356816;32;35673;-75
2022/06/19 05:06:39;;;;;;;;;;;;;;;25.10;41.41;100670.50;5342578;32;34794;-71
2022/06/19 05:09:41;;;;;;;;;;;;;;;25.32;40.83;100672.00;5358201;32;34494;-76
2022/06/19 05:12:54;;;;;;;;;;;;;;;25.58;40.00;100673.00;5337688;32;34989;-71
2022/06/19 05:16:03;;;;;;;;;;;;;;;25.98;39.60;100671.78;5342593;32;35661;-72
2022/06/19 05:19:05;;;;;;;;;;;;;;;26.29;38.64;100672.25;5359924;32;45348;-78
2022/06/19 05:22:07;;;;;;;;;;;;;;;26.58;38.34;100681.97;5343287;32;35419;-78
2022/06/19 05:25:09;;;;;;;;;;;;;;;26.85;37.29;100675.59;5359933;32;36955;-78
2022/06/19 05:28:11;;;;;;;;;;;;;;;27.34;36.38;100678.59;5339107;32;37215;-77
2022/06/19 05:31:13;;;;;;;;;;;;;;;27.45;36.45;100675.62;5357686;32;35940;-71
2022/06/19 05:34:15;;;;;;;;;;;;;;;27.61;35.76;100661.34;5345867;32;35938;-72
2022/06/19 05:37:18;;;;;;;;;;;;;;;26.80;37.30;100673.38;5343445;32;34831;-78
2022/06/19 05:40:21;;;;;;;;;;;;;;;27.39;36.54;100685.22;5334884;32;34891;-71
2022/06/19 05:43:24;;;;;;;;;;;;;;;26.50;38.08;100680.06;5342256;32;34180;-71
2022/06/19 05:46:26;;;;;;;;;;;;;;;28.29;35.06;100671.97;5359833;32;34388;-76
2022/06/19 05:49:28;;;;;;;;;;;;;;;27.74;35.84;100686.03;5344830;32;44505;-78
2022/06/19 05:52:30;;;;;;;;;;;;;;;28.65;34.14;100666.25;5356299;32;35463;-73
2022/06/19 05:55:32;;;;;;;;;;;;;;;29.40;33.21;100667.63;5348945;32;34988;-78
2022/06/19 05:58:34;;;;;;;;;;;;;;;28.73;34.27;100677.09;5342882;32;35073;-78
2022/06/19 06:01:36;;;;;;;;;;;;;;;29.04;33.48;100678.03;5357703;32;35016;-79
2022/06/19 06:04:39;;;;;;;;;;;;;;;28.51;34.54;100674.03;5346699;32;35304;-76
2022/06/19 06:07:41;;;;;;;;;;;;;;;29.27;33.25;100674.63;5357991;32;34831;-72
2022/06/19 06:10:43;;;;;;;;;;;;;;;29.69;32.38;100668.91;5343233;32;36142;-78
2022/06/19 06:13:45;;;;;;;;;;;;;;;29.68;32.52;100669.88;5351024;32;35509;-72
2022/06/19 06:16:47;;;;;;;;;;;;;;;28.94;33.72;100665.75;5347085;32;35513;-72
2022/06/19 06:19:49;;;;;;;;;;;;;;;29.85;31.31;100667.94;5343785;32;35638;-73
2022/06/19 06:22:51;;;;;;;;;;;;;;;29.03;32.51;100665.53;5356167;32;34872;-72
2022/06/19 06:25:59;;;;;;;;;;;;;;;30.00;31.30;100670.72;5342673;32;35693;-72
2022/06/19 06:29:01;;;;;;;;;;;;;;;32.25;27.52;100669.50;5358704;32;48178;-73
2022/06/19 06:32:03;;;;;;;;;;;;;;;32.03;27.65;100660.50;5341625;32;34917;-72
2022/06/19 06:35:05;;;;;;;;;;;;;;;32.99;26.15;100662.84;5352058;32;34145;-80
2022/06/19 06:38:07;;;;;;;;;;;;;;;34.09;24.46;100659.16;5350214;32;34289;-72
2022/06/19 06:41:11;;;;;;;;;;;;;;;32.45;26.51;100658.00;5319249;32;35432;-77
2022/06/19 06:44:13;;;;;;;;;;;;;;;32.77;25.48;100662.00;5356447;32;34440;-78
2022/06/19 06:47:15;;;;;;;;;;;;;;;33.29;24.65;100668.84;5342653;32;34862;-72
2022/06/19 06:50:19;;;;;;;;;;;;;;;32.44;25.86;100662.59;5357436;32;34488;-73
2022/06/19 06:53:21;;;;;;;;;;;;;;;33.06;23.75;100661.00;5342761;32;36651;-76
2022/06/19 06:56:24;;;;;;;;;;;;;;;34.63;21.42;100658.16;5347964;32;35394;-77
2022/06/19 06:59:26;;;;;;;;;;;;;;;34.80;21.20;100659.41;5351718;32;35494;-71
2022/06/19 07:02:27;;;;;;;;;;;;;;;32.41;24.63;100657.56;5342837;32;45950;-72
2022/06/19 07:05:29;;;;;;;;;;;;;;;34.23;22.33;100671.75;5358277;32;34693;-78
2022/06/19 07:08:31;;;;;;;;;;;;;;;35.58;20.92;100673.12;5342228;32;36043;-71
2022/06/19 07:11:34;;;;;;;;;;;;;;;35.26;21.25;100673.00;5356686;32;35206;-73
2022/06/19 07:14:36;;;;;;;;;;;;;;;34.97;21.82;100670.72;5341072;32;34990;-77
2022/06/19 07:17:38;;;;;;;;;;;;;;;33.97;23.47;100660.81;5347962;32;35670;-71
2022/06/19 07:20:40;;;;;;;;;;;;;;;33.91;23.50;100665.19;5352996;32;35378;-72
2022/06/19 07:23:42;;;;;;;;;;;;;;;34.39;22.77;100646.81;5345278;32;34886;-73
2022/06/19 07:28:58;;;;;;;;;;;;;;;34.13;22.27;100657.66;5427724;31;888774;-78
2022/06/19 07:32:07;;;;;;;;;;;;;;;35.26;21.47;100659.31;5455809;32;35138;-75
2022/06/19 07:35:09;;;;;;;;;;;;;;;32.75;24.10;100664.94;5436833;32;34589;-76
2022/06/19 07:38:12;;;;;;;;;;;;;;;33.94;21.77;100662.03;5451202;32;34796;-72
2022/06/19 07:41:14;;;;;;;;;;;;;;;35.40;19.74;100664.75;5427886;32;36363;-78
2022/06/19 07:44:16;;;;;;;;;;;;;;;36.10;18.48;100664.88;5437435;32;34581;-70
2022/06/19 07:50:39;;;;;;;;;;;;;;;35.83;18.96;100656.78;5432783;32;34870;-71
2022/06/19 07:53:41;;;;;;;;;;;;;;;34.60;20.37;100653.97;5448135;32;34561;-71
2022/06/19 07:56:42;;;;;;;;;;;;;;;32.74;23.43;100656.97;5430956;32;35462;-76
2022/06/19 07:59:44;;;;;;;;;;;;;;;34.63;21.17;100644.50;5445236;32;34810;-70
2022/06/19 08:02:48;;;;;;;;;;;;;;;35.62;19.69;100635.22;5440770;32;34936;-77
2022/06/19 08:05:50;;;;;;;;;;;;;;;35.39;19.75;100647.50;5429698;32;35205;-69
2022/06/19 08:08:52;;;;;;;;;;;;;;;34.21;21.20;100647.44;5447835;32;36547;-80
2022/06/19 08:11:54;;;;;;;;;;;;;;;34.87;19.58;100634.81;5430143;32;34977;-71
2022/06/19 08:14:56;;;;;;;;;;;;;;;34.11;20.76;100618.88;5443955;32;35010;-79
2022/06/19 08:17:58;;;;;;;;;;;;;;;33.33;22.10;100630.13;5428775;32;44734;-79
2022/06/19 08:21:01;;;;;;;;;;;;;;;34.73;20.45;100623.94;5447745;32;33189;-71
2022/06/19 08:24:03;;;;;;;;;;;;;;;34.04;21.62;100621.59;5438142;32;33651;-80
2022/06/19 08:27:05;;;;;;;;;;;;;;;33.05;22.65;100616.59;5424184;32;34841;-72
2022/06/19 08:30:10;;;;;;;;;;;;;;;35.37;19.51;100611.38;5447966;32;35277;-71
2022/06/19 08:33:12;;;;;;;;;;;;;;;32.45;22.77;100615.31;5448418;32;34842;-70
2022/06/19 08:36:14;;;;;;;;;;;;;;;32.96;22.51;100615.06;5450996;32;35402;-71
2022/06/19 08:39:16;;;;;;;;;;;;;;;34.79;20.30;100608.59;5428160;32;34658;-79
2022/06/19 08:42:30;;;;;;;;;;;;;;;34.75;19.75;100612.78;5422375;32;35745;-77
2022/06/19 08:45:38;;;;;;;;;;;;;;;34.70;19.96;100607.13;5429761;32;45939;-80
2022/06/19 08:48:45;;;;;;;;;;;;;;;36.14;18.32;100606.75;5419519;32;34980;-71
2022/06/19 08:51:56;;;;;;;;;;;;;;;35.97;18.57;100611.94;5433161;32;34747;-72
2022/06/19 08:54:58;;;;;;;;;;;;;;;34.05;20.34;100589.72;5418834;32;45921;-80
2022/06/19 08:58:03;;;;;;;;;;;;;;;34.97;19.97;100605.19;5432846;32;34371;-79
2022/06/19 09:01:18;;;;;;;;;;;;;;;36.43;18.53;100597.06;5427868;32;35411;-77
2022/06/19 09:07:47;;;;;;;;;;;;;;;34.57;20.27;100615.31;5452965;32;34551;-78
2022/06/19 09:10:52;;;;;;;;;;;;;;;34.39;19.88;100611.34;5436561;32;34267;-72
2022/06/19 09:14:12;;;;;;;;;;;;;;;34.72;20.02;100597.69;5433920;32;35106;-77
2022/06/19 09:17:14;;;;;;;;;;;;;;;36.76;17.99;100602.19;5436156;32;35033;-72
2022/06/19 09:20:24;;;;;;;;;;;;;;;35.13;18.39;100601.16;5432981;32;34300;-71
2022/06/19 09:23:33;;;;;;;;;;;;;;;35.83;18.13;100596.63;5435809;32;34454;-79
2022/06/19 09:26:43;;;;;;;;;;;;;;;35.04;18.90;100589.66;5423149;32;35613;-80
2022/06/19 09:30:05;;;;;;;;;;;;;;;34.99;19.13;100581.25;5438246;32;34822;-79
2022/06/19 09:33:28;;;;;;;;;;;;;;;36.18;18.18;100566.09;5448248;32;35691;-80
2022/06/19 09:36:51;;;;;;;;;;;;;;;36.95;17.50;100564.75;5435754;32;44011;-72
2022/06/19 09:39:57;;;;;;;;;;;;;;;37.10;16.77;100570.69;5419244;32;35298;-73
2022/06/19 09:43:08;;;;;;;;;;;;;;;35.68;17.87;100579.69;5407336;32;44930;-78
2022/06/19 09:46:18;;;;;;;;;;;;;;;35.78;17.60;100575.41;5401482;32;34181;-77
2022/06/19 09:49:22;;;;;;;;;;;;;;;37.27;16.09;100565.38;5425408;32;35616;-71
2022/06/19 09:52:29;;;;;;;;;;;;;;;37.11;15.98;100569.63;5435646;32;34830;-80
2022/06/19 09:55:41;;;;;;;;;;;;;;;36.57;16.67;100563.00;5437592;32;45240;-70
2022/06/19 09:58:46;;;;;;;;;;;;;;;34.48;18.94;100573.78;5400204;32;36588;-79
2022/06/19 10:01:55;;;;;;;;;;;;;;;34.06;19.12;100570.41;5433768;32;34215;-80
2022/06/19 10:04:59;;;;;;;;;;;;;;;35.50;17.87;100559.41;5430713;32;44849;-78
2022/06/19 10:08:07;;;;;;;;;;;;;;;35.36;18.06;100552.31;5422798;32;33864;-71
2022/06/19 10:11:13;;;;;;;;;;;;;;;36.26;17.14;100543.91;5450554;32;34447;-72
2022/06/19 10:14:33;;;;;;;;;;;;;;;38.09;15.46;100534.69;5428945;32;34664;-79
2022/06/19 10:17:40;;;;;;;;;;;;;;;37.12;15.89;100543.88;5426081;32;45246;-76
2022/06/19 10:20:46;;;;;;;;;;;;;;;36.66;16.25;100546.31;5423961;32;35160;-72
2022/06/19 10:23:54;;;;;;;;;;;;;;;36.98;16.14;100539.66;5424578;32;35319;-78
2022/06/19 10:27:05;;;;;;;;;;;;;;;37.22;15.72;100537.00;5451077;32;35021;-71
2022/06/19 10:30:09;;;;;;;;;;;;;;;36.22;16.73;100531.78;5435000;32;33381;-77
2022/06/19 10:33:20;;;;;;;;;;;;;;;36.27;16.74;100534.69;5451757;32;34772;-81
2022/06/19 10:36:22;;;;;;;;;;;;;;;37.94;14.87;100524.19;5437033;32;36035;-79
2022/06/19 10:39:24;;;;;;;;;;;;;;;37.31;15.04;100520.03;5421658;32;34857;-71
2022/06/19 10:42:29;;;;;;;;;;;;;;;37.09;15.40;100514.19;5444736;32;34930;-78
2022/06/19 10:45:35;;;;;;;;;;;;;;;37.89;14.19;100500.19;5421094;32;45306;-78
2022/06/19 10:48:40;;;;;;;;;;;;;;;36.71;14.31;100503.50;5452784;32;33958;-77
2022/06/19 10:51:54;;;;;;;;;;;;;;;38.02;13.52;100510.09;5435599;32;34797;-78
2022/06/19 10:55:22;;;;;;;;;;;;;;;37.88;13.98;100492.22;5427039;32;34413;-70
2022/06/19 10:58:26;;;;;;;;;;;;;;;36.29;15.78;100500.53;5448062;32;34361;-73
2022/06/19 11:04:55;;;;;;;;;;;;;;;36.54;15.83;100497.78;5450289;32;34668;-78
2022/06/19 11:07:57;;;;;;;;;;;;;;;38.88;12.96;100486.53;5415208;32;46239;-72
2022/06/19 11:10:59;;;;;;;;;;;;;;;38.17;13.32;100484.94;5416329;32;34485;-79
2022/06/19 11:14:03;;;;;;;;;;;;;;;38.14;13.68;100488.16;5430687;32;34738;-74
2022/06/19 11:17:06;;;;;;;;;;;;;;;36.52;15.50;100490.88;5427697;32;34872;-78
2022/06/19 11:20:20;;;;;;;;;;;;;;;38.08;14.00;100480.87;5445998;32;35322;-79
2022/06/19 11:23:31;;;;;;;;;;;;;;;37.84;14.36;100477.28;5422002;32;35802;-72
2022/06/19 11:26:35;;;;;;;;;;;;;;;37.84;14.00;100474.53;5442253;32;46468;-81
2022/06/19 11:29:37;;;;;;;;;;;;;;;38.00;13.54;100484.84;5424970;32;34191;-73
2022/06/19 11:32:45;;;;;;;;;;;;;;;35.49;16.10;100483.97;5418614;32;34960;-72
2022/06/19 11:35:55;;;;;;;;;;;;;;;35.12;16.83;100480.16;5430913;32;35236;-78
2022/06/19 11:38:58;;;;;;;;;;;;;;;35.42;16.52;100466.75;5404561;32;42583;-72
2022/06/19 11:42:05;;;;;;;;;;;;;;;36.95;14.98;100444.22;5414506;32;35660;-71
2022/06/19 11:45:13;;;;;;;;;;;;;;;39.21;13.22;100447.34;5416711;32;34229;-81
2022/06/19 11:48:15;;;;;;;;;;;;;;;37.96;14.40;100447.97;5434012;32;34189;-72
2022/06/19 11:51:18;;;;;;;;;;;;;;;37.80;14.72;100451.41;5450531;32;36197;-77
2022/06/19 11:54:23;;;;;;;;;;;;;;;38.97;13.76;100452.12;5436023;32;34581;-72
2022/06/19 11:57:26;;;;;;;;;;;;;;;38.07;14.01;100440.81;5438689;32;35036;-72
2022/06/19 12:00:32;;;;;;;;;;;;;;;37.07;15.09;100447.00;5420885;32;44230;-72
2022/06/19 12:03:44;;;;;;;;;;;;;;;38.34;14.02;100430.19;5416164;32;34858;-80
2022/06/19 12:06:50;;;;;;;;;;;;;;;36.65;15.68;100449.66;5444435;32;34781;-79
2022/06/19 12:09:54;;;;;;;;;;;;;;;34.97;16.98;100449.53;5411263;32;35282;-80
2022/06/19 12:12:57;;;;;;;;;;;;;;;34.09;17.19;100443.72;5447364;32;33740;-72
2022/06/19 12:16:11;;;;;;;;;;;;;;;35.12;16.19;100430.16;5420105;32;45296;-79
2022/06/19 12:19:33;;;;;;;;;;;;;;;33.84;17.79;100427.97;5447792;32;35830;-72
2022/06/19 12:22:35;;;;;;;;;;;;;;;34.41;17.47;100431.88;5440276;32;46720;-77
2022/06/19 12:25:43;;;;;;;;;;;;;;;34.45;17.69;100426.84;5437238;32;34932;-72
2022/06/19 12:28:49;;;;;;;;;;;;;;;33.38;18.93;100419.78;5453510;32;34466;-73
2022/06/19 12:31:51;;;;;;;;;;;;;;;33.38;18.66;100414.31;5424222;32;36961;-71
2022/06/19 12:34:54;;;;;;;;;;;;;;;32.58;19.38;100414.06;5429264;32;35300;-71
2022/06/19 12:37:55;;;;;;;;;;;;;;;32.69;19.13;100417.28;5417298;32;34239;-72
2022/06/19 12:40:57;;;;;;;;;;;;;;;33.35;18.53;100404.66;5414546;32;44600;-79
2022/06/19 12:44:18;;;;;;;;;;;;;;;33.47;18.37;100404.09;5449542;32;34958;-79
2022/06/19 12:47:34;;;;;;;;;;;;;;;32.74;19.30;100396.56;5436704;32;35599;-72
2022/06/19 12:50:45;;;;;;;;;;;;;;;33.25;18.45;100414.31;5438831;32;44424;-72
2022/06/19 12:54:08;;;;;;;;;;;;;;;32.29;19.32;100403.47;5422636;32;34651;-72
2022/06/19 12:57:22;;;;;;;;;;;;;;;32.20;19.55;100396.47;5424352;32;35269;-71
2022/06/19 13:00:37;;;;;;;;;;;;;;;32.65;18.89;100389.63;5452503;32;35030;-71
2022/06/19 13:03:51;;;;;;;;;;;;;;;32.57;18.70;100389.78;5436052;32;35157;-80
2022/06/19 13:06:56;;;;;;;;;;;;;;;32.66;19.24;100388.59;5454012;32;35325;-76
2022/06/19 13:10:16;;;;;;;;;;;;;;;33.01;18.54;100377.62;5437517;32;45671;-79
2022/06/19 13:13:21;;;;;;;;;;;;;;;33.15;18.10;100368.41;5429703;32;34725;-72
2022/06/19 13:16:23;;;;;;;;;;;;;;;33.28;18.49;100370.31;5452215;32;35013;-78
2022/06/19 13:19:27;;;;;;;;;;;;;;;32.05;19.53;100353.13;5436244;32;35376;-80
2022/06/19 13:22:34;;;;;;;;;;;;;;;31.88;20.16;100370.78;5444633;32;43306;-72
2022/06/19 13:25:42;;;;;;;;;;;;;;;32.26;20.29;100357.62;5422353;32;33582;-77
2022/06/19 13:28:48;;;;;;;;;;;;;;;32.19;20.21;100349.44;5437909;32;35020;-79
2022/06/19 13:31:56;;;;;;;;;;;;;;;31.84;20.95;100350.50;5439175;32;32963;-77
2022/06/19 13:35:17;;;;;;;;;;;;;;;32.48;18.81;100337.47;5421731;32;45708;-73
2022/06/19 13:38:25;;;;;;;;;;;;;;;32.27;18.57;100340.28;5451806;32;34606;-78
2022/06/19 13:41:46;;;;;;;;;;;;;;;31.81;19.46;100346.28;5421216;32;34987;-71
2022/06/19 13:44:52;;;;;;;;;;;;;;;32.08;19.25;100339.97;5420217;32;35611;-71
2022/06/19 13:48:06;;;;;;;;;;;;;;;33.20;18.79;100332.41;5433781;32;36767;-77
2022/06/19 13:51:12;;;;;;;;;;;;;;;32.12;20.36;100331.41;5428451;32;34782;-78
2022/06/19 13:54:21;;;;;;;;;;;;;;;31.96;20.67;100324.44;5431933;32;34616;-80
2022/06/19 13:57:36;;;;;;;;;;;;;;;32.19;20.67;100311.37;5437322;32;35257;-70
2022/06/19 14:00:42;;;;;;;;;;;;;;;32.91;19.64;100309.13;5424081;32;34443;-72
2022/06/19 14:07:32;;;;;;;;;;;;;;;32.49;20.29;100311.94;5430652;32;35493;-79
2022/06/19 14:10:47;;;;;;;;;;;;;;;32.06;20.54;100316.75;5449795;32;34969;-79
2022/06/19 14:13:56;;;;;;;;;;;;;;;31.74;21.20;100308.16;5439405;32;35039;-71
2022/06/19 14:17:00;;;;;;;;;;;;;;;31.98;20.85;100303.31;5427534;32;45637;-78
2022/06/19 14:20:03;;;;;;;;;;;;;;;32.85;19.66;100284.41;5447417;32;34428;-78
2022/06/19 14:23:04;;;;;;;;;;;;;;;32.92;19.66;100280.87;5421568;32;34870;-72
2022/06/19 14:26:06;;;;;;;;;;;;;;;32.39;20.84;100278.00;5434604;32;35277;-71
2022/06/19 14:29:24;;;;;;;;;;;;;;;32.29;20.58;100265.59;5418200;32;35500;-72
2022/06/19 14:32:27;;;;;;;;;;;;;;;32.45;20.50;100255.41;5419479;32;34677;-79
2022/06/19 14:35:35;;;;;;;;;;;;;;;32.47;19.59;100265.06;5432908;32;44373;-81
2022/06/19 14:38:38;;;;;;;;;;;;;;;32.45;20.17;100267.13;5409042;32;34840;-78
2022/06/19 14:41:40;;;;;;;;;;;;;;;31.93;20.97;100262.31;5419993;32;35679;-77
2022/06/19 14:44:49;;;;;;;;;;;;;;;32.43;20.28;100249.34;5419316;32;35102;-79
2022/06/19 14:47:57;;;;;;;;;;;;;;;32.11;20.82;100246.31;5434161;32;34912;-80
2022/06/19 14:50:59;;;;;;;;;;;;;;;32.97;19.39;100254.69;5427429;32;43603;-72
2022/06/19 14:54:07;;;;;;;;;;;;;;;31.97;20.45;100248.13;5435201;32;35640;-79
2022/06/19 14:57:22;;;;;;;;;;;;;;;31.89;20.98;100245.59;5452416;32;35368;-78
2022/06/19 15:00:41;;;;;;;;;;;;;;;32.05;20.74;100238.97;5434013;32;34888;-76
2022/06/19 15:03:47;;;;;;;;;;;;;;;32.28;19.80;100228.59;5423480;32;36159;-72
2022/06/19 15:06:55;;;;;;;;;;;;;;;32.63;19.73;100231.19;5430720;32;34688;-71
2022/06/19 15:10:05;;;;;;;;;;;;;;;32.60;20.13;100234.34;5434130;32;44564;-77
2022/06/19 15:13:19;;;;;;;;;;;;;;;32.18;20.22;100225.41;5433403;32;35237;-79
2022/06/19 15:16:22;;;;;;;;;;;;;;;31.72;21.07;100231.47;5420956;32;36033;-70
2022/06/19 15:19:36;;;;;;;;;;;;;;;31.75;21.10;100228.38;5450372;32;34601;-77
2022/06/19 15:22:40;;;;;;;;;;;;;;;31.76;21.15;100211.03;5427966;32;35040;-72
2022/06/19 15:25:43;;;;;;;;;;;;;;;32.40;20.58;100215.25;5432593;32;34949;-72
2022/06/19 15:28:45;;;;;;;;;;;;;;;32.73;20.08;100212.56;5429573;32;35082;-71
2022/06/19 15:31:57;;;;;;;;;;;;;;;32.15;20.67;100216.84;5427382;32;34698;-71
2022/06/19 15:35:22;;;;;;;;;;;;;;;32.55;19.93;100206.91;5442414;32;44555;-78
2022/06/19 15:38:24;;;;;;;;;;;;;;;32.14;20.30;100204.25;5415051;32;34806;-70
2022/06/19 15:41:42;;;;;;;;;;;;;;;32.20;20.89;100185.28;5400705;32;34874;-72
2022/06/19 15:45:02;;;;;;;;;;;;;;;31.67;21.69;100193.19;5434562;32;35288;-78
2022/06/19 15:48:26;;;;;;;;;;;;;;;31.71;21.48;100183.63;5430621;32;34714;-80
2022/06/19 15:51:30;;;;;;;;;;;;;;;31.99;21.13;100182.69;5447548;32;44740;-79
2022/06/19 15:54:32;;;;;;;;;;;;;;;31.48;21.75;100167.59;5430394;32;35558;-72
2022/06/19 15:57:35;;;;;;;;;;;;;;;31.56;22.22;100161.19;5423725;32;34066;-80
2022/06/19 16:00:42;;;;;;;;;;;;;;;31.51;22.40;100164.50;5452931;32;35558;-71
2022/06/19 16:03:47;;;;;;;;;;;;;;;31.81;21.86;100166.94;5425848;32;34382;-72
2022/06/19 16:06:53;;;;;;;;;;;;;;;31.81;21.70;100162.34;5439549;32;35287;-73